sensor_id;sensor_type;location;lat;lon;timestamp;pressure;altitude;pressure_sealevel;temperature;humidity
74474;BME280;62922;-6.168;106.796;2023-01-06T00:00:37;101093.50;;;29.77;61.16
74474;BME280;62922;-6.168;106.796;2023-01-06T00:03:03;101097.25;;;29.73;61.22
74474;BME280;62922;-6.168;106.796;2023-01-06T00:05:30;101130.69;;;29.96;61.03
74474;BME280;62922;-6.168;106.796;2023-01-06T00:07:57;101086.94;;;29.68;61.22
74474;BME280;62922;-6.168;106.796;2023-01-06T00:10:24;101058.53;;;29.56;61.06
74474;BME280;62922;-6.168;106.796;2023-01-06T00:12:50;101126.94;;;30.01;61.28
74474;BME280;62922;-6.168;106.796;2023-01-06T00:15:17;101109.69;;;29.94;61.49
74474;BME280;62922;-6.168;106.796;2023-01-06T00:17:44;101139.75;;;30.07;61.24
74474;BME280;62922;-6.168;106.796;2023-01-06T00:20:13;101085.19;;;29.72;61.45
74474;BME280;62922;-6.168;106.796;2023-01-06T00:22:40;101083.50;;;29.71;61.26
74474;BME280;62922;-6.168;106.796;2023-01-06T00:25:07;101099.44;;;29.76;61.08
74474;BME280;62922;-6.168;106.796;2023-01-06T00:27:35;101112.72;;;29.84;60.96
74474;BME280;62922;-6.168;106.796;2023-01-06T00:30:02;101081.72;;;29.61;60.75
74474;BME280;62922;-6.168;106.796;2023-01-06T00:32:31;101085.25;;;29.67;60.57
74474;BME280;62922;-6.168;106.796;2023-01-06T00:35:01;101092.84;;;29.80;60.61
74474;BME280;62922;-6.168;106.796;2023-01-06T00:37:27;101090.16;;;29.75;60.53
74474;BME280;62922;-6.168;106.796;2023-01-06T00:39:53;101137.88;;;30.02;60.33
74474;BME280;62922;-6.168;106.796;2023-01-06T00:42:20;101056.22;;;29.58;60.21
74474;BME280;62922;-6.168;106.796;2023-01-06T00:44:52;101166.16;;;30.19;59.92
74474;BME280;62922;-6.168;106.796;2023-01-06T00:47:18;101125.06;;;29.96;59.93
74474;BME280;62922;-6.168;106.796;2023-01-06T00:49:45;101107.47;;;29.91;59.75
74474;BME280;62922;-6.168;106.796;2023-01-06T00:52:14;101092.09;;;29.88;59.56
74474;BME280;62922;-6.168;106.796;2023-01-06T00:54:40;101157.38;;;30.21;59.72
74474;BME280;62922;-6.168;106.796;2023-01-06T00:57:08;101152.59;;;30.21;59.18
74474;BME280;62922;-6.168;106.796;2023-01-06T00:59:34;101117.34;;;30.02;58.79
74474;BME280;62922;-6.168;106.796;2023-01-06T01:02:01;101110.91;;;30.01;58.89
74474;BME280;62922;-6.168;106.796;2023-01-06T01:04:27;101137.50;;;30.17;58.98
74474;BME280;62922;-6.168;106.796;2023-01-06T01:06:54;101158.69;;;30.37;58.83
74474;BME280;62922;-6.168;106.796;2023-01-06T01:09:26;101055.75;;;29.78;58.88
74474;BME280;62922;-6.168;106.796;2023-01-06T01:11:53;101098.66;;;30.06;58.73
74474;BME280;62922;-6.168;106.796;2023-01-06T01:14:47;101104.47;;;30.09;58.66
74474;BME280;62922;-6.168;106.796;2023-01-06T01:17:20;101143.09;;;30.31;58.14
74474;BME280;62922;-6.168;106.796;2023-01-06T01:19:48;101145.44;;;30.37;58.35
74474;BME280;62922;-6.168;106.796;2023-01-06T01:22:15;101130.84;;;30.35;58.37
74474;BME280;62922;-6.168;106.796;2023-01-06T01:24:41;101144.97;;;30.44;58.28
74474;BME280;62922;-6.168;106.796;2023-01-06T01:27:11;101106.63;;;30.26;58.19
74474;BME280;62922;-6.168;106.796;2023-01-06T01:29:38;101136.53;;;30.44;57.86
74474;BME280;62922;-6.168;106.796;2023-01-06T01:32:04;101145.38;;;30.51;58.21
74474;BME280;62922;-6.168;106.796;2023-01-06T01:34:31;101142.34;;;30.47;57.92
74474;BME280;62922;-6.168;106.796;2023-01-06T01:36:57;101137.19;;;30.41;58.90
74474;BME280;62922;-6.168;106.796;2023-01-06T01:39:26;101147.00;;;30.43;57.92
74474;BME280;62922;-6.168;106.796;2023-01-06T01:41:57;101129.66;;;30.28;57.94
74474;BME280;62922;-6.168;106.796;2023-01-06T01:44:54;101172.41;;;30.60;58.60
74474;BME280;62922;-6.168;106.796;2023-01-06T01:47:42;101171.13;;;30.66;58.46
74474;BME280;62922;-6.168;106.796;2023-01-06T01:53:13;101120.28;;;30.41;57.55
74474;BME280;62922;-6.168;106.796;2023-01-06T01:55:40;101141.59;;;30.55;57.22
74474;BME280;62922;-6.168;106.796;2023-01-06T01:58:12;101123.09;;;30.41;57.51
74474;BME280;62922;-6.168;106.796;2023-01-06T02:00:44;101164.72;;;30.75;56.53
74474;BME280;62922;-6.168;106.796;2023-01-06T02:03:12;101121.69;;;30.52;56.46
74474;BME280;62922;-6.168;106.796;2023-01-06T02:05:41;101174.16;;;30.79;55.47
74474;BME280;62922;-6.168;106.796;2023-01-06T02:08:35;101134.66;;;30.61;56.23
74474;BME280;62922;-6.168;106.796;2023-01-06T02:11:02;101114.06;;;30.52;56.22
74474;BME280;62922;-6.168;106.796;2023-01-06T02:13:30;101151.03;;;30.82;55.81
74474;BME280;62922;-6.168;106.796;2023-01-06T02:16:22;101090.72;;;30.60;55.92
74474;BME280;62922;-6.168;106.796;2023-01-06T02:21:36;101151.09;;;30.99;55.05
74474;BME280;62922;-6.168;106.796;2023-01-06T02:34:58;101147.78;;;31.36;53.51
74474;BME280;62922;-6.168;106.796;2023-01-06T02:37:51;101087.44;;;31.06;53.53
74474;BME280;62922;-6.168;106.796;2023-01-06T02:43:14;101145.00;;;31.53;53.44
74474;BME280;62922;-6.168;106.796;2023-01-06T02:45:55;101136.69;;;31.56;52.79
74474;BME280;62922;-6.168;106.796;2023-01-06T02:51:24;101119.78;;;31.65;51.57
74474;BME280;62922;-6.168;106.796;2023-01-06T02:56:47;101120.47;;;31.79;51.49
74474;BME280;62922;-6.168;106.796;2023-01-06T02:59:21;101108.50;;;31.82;51.21
74474;BME280;62922;-6.168;106.796;2023-01-06T03:01:51;101119.81;;;31.91;49.36
74474;BME280;62922;-6.168;106.796;2023-01-06T03:04:26;101111.50;;;31.94;49.91
74474;BME280;62922;-6.168;106.796;2023-01-06T03:06:57;101066.81;;;31.71;49.38
74474;BME280;62922;-6.168;106.796;2023-01-06T03:09:33;101120.28;;;32.01;48.72
74474;BME280;62922;-6.168;106.796;2023-01-06T03:12:06;101082.31;;;31.90;48.67
74474;BME280;62922;-6.168;106.796;2023-01-06T03:14:38;101103.53;;;32.13;48.23
74474;BME280;62922;-6.168;106.796;2023-01-06T03:17:06;101067.50;;;31.93;48.27
74474;BME280;62922;-6.168;106.796;2023-01-06T03:19:33;101044.44;;;31.91;48.51
74474;BME280;62922;-6.168;106.796;2023-01-06T03:22:01;101075.47;;;32.08;47.58
74474;BME280;62922;-6.168;106.796;2023-01-06T03:24:30;100965.09;;;31.50;48.08
74474;BME280;62922;-6.168;106.796;2023-01-06T03:26:58;101015.22;;;31.96;47.53
74474;BME280;62922;-6.168;106.796;2023-01-06T03:29:24;101089.69;;;32.37;47.77
74474;BME280;62922;-6.168;106.796;2023-01-06T03:32:05;101095.97;;;32.51;48.04
74474;BME280;62922;-6.168;106.796;2023-01-06T03:37:35;101070.75;;;32.46;47.10
74474;BME280;62922;-6.168;106.796;2023-01-06T03:40:27;101034.03;;;32.29;46.75
74474;BME280;62922;-6.168;106.796;2023-01-06T03:43:06;101051.63;;;32.43;47.01
74474;BME280;62922;-6.168;106.796;2023-01-06T03:51:28;101027.06;;;32.35;47.43
74474;BME280;62922;-6.168;106.796;2023-01-06T03:54:17;101087.31;;;32.65;47.71
74474;BME280;62922;-6.168;106.796;2023-01-06T03:59:22;101034.03;;;32.46;47.65
74474;BME280;62922;-6.168;106.796;2023-01-06T04:01:50;101072.03;;;32.58;47.43
74474;BME280;62922;-6.168;106.796;2023-01-06T04:04:17;100955.25;;;31.99;46.96
74474;BME280;62922;-6.168;106.796;2023-01-06T04:06:44;101012.06;;;32.43;47.04
74474;BME280;62922;-6.168;106.796;2023-01-06T04:09:11;101028.88;;;32.48;46.99
74474;BME280;62922;-6.168;106.796;2023-01-06T04:11:37;101024.63;;;32.63;46.92
74474;BME280;62922;-6.168;106.796;2023-01-06T04:14:12;101059.91;;;32.86;47.00
74474;BME280;62922;-6.168;106.796;2023-01-06T04:16:38;101063.56;;;32.95;46.33
74474;BME280;62922;-6.168;106.796;2023-01-06T04:19:05;101043.09;;;32.98;47.21
74474;BME280;62922;-6.168;106.796;2023-01-06T04:21:31;100999.16;;;32.72;47.09
74474;BME280;62922;-6.168;106.796;2023-01-06T04:23:57;100975.91;;;32.66;47.25
74474;BME280;62922;-6.168;106.796;2023-01-06T04:26:23;100943.06;;;32.53;46.55
74474;BME280;62922;-6.168;106.796;2023-01-06T04:28:50;100981.59;;;32.87;46.52
74474;BME280;62922;-6.168;106.796;2023-01-06T04:31:17;101023.72;;;33.09;46.67
74474;BME280;62922;-6.168;106.796;2023-01-06T04:33:45;101007.38;;;32.94;46.67
74474;BME280;62922;-6.168;106.796;2023-01-06T04:36:12;100990.75;;;32.84;47.16
74474;BME280;62922;-6.168;106.796;2023-01-06T04:38:41;101018.75;;;33.06;47.33
74474;BME280;62922;-6.168;106.796;2023-01-06T04:41:07;101011.03;;;33.15;47.69
74474;BME280;62922;-6.168;106.796;2023-01-06T04:43:33;101025.78;;;33.20;47.35
74474;BME280;62922;-6.168;106.796;2023-01-06T04:46:00;101021.47;;;33.23;47.45
74474;BME280;62922;-6.168;106.796;2023-01-06T04:48:27;101018.50;;;33.19;47.40
74474;BME280;62922;-6.168;106.796;2023-01-06T04:51:06;101016.06;;;33.09;47.01
74474;BME280;62922;-6.168;106.796;2023-01-06T04:53:39;101022.66;;;33.22;46.86
74474;BME280;62922;-6.168;106.796;2023-01-06T04:56:08;100965.63;;;32.91;47.28
74474;BME280;62922;-6.168;106.796;2023-01-06T04:58:35;101010.78;;;33.28;47.54
74474;BME280;62922;-6.168;106.796;2023-01-06T05:01:04;101003.59;;;33.31;47.14
74474;BME280;62922;-6.168;106.796;2023-01-06T05:03:31;100966.97;;;33.14;47.09
74474;BME280;62922;-6.168;106.796;2023-01-06T05:06:02;100987.56;;;33.35;47.45
74474;BME280;62922;-6.168;106.796;2023-01-06T05:08:29;100962.63;;;33.16;46.95
74474;BME280;62922;-6.168;106.796;2023-01-06T05:11:02;100976.00;;;33.28;47.31
74474;BME280;62922;-6.168;106.796;2023-01-06T05:13:30;100982.13;;;33.30;47.19
74474;BME280;62922;-6.168;106.796;2023-01-06T05:15:58;100973.88;;;33.25;47.31
74474;BME280;62922;-6.168;106.796;2023-01-06T05:18:26;100952.63;;;33.19;47.32
74474;BME280;62922;-6.168;106.796;2023-01-06T05:20:55;100943.50;;;33.13;48.04
74474;BME280;62922;-6.168;106.796;2023-01-06T05:23:21;100940.00;;;33.16;48.14
74474;BME280;62922;-6.168;106.796;2023-01-06T05:25:50;100935.59;;;33.27;48.66
74474;BME280;62922;-6.168;106.796;2023-01-06T05:28:17;100925.78;;;33.25;48.99
74474;BME280;62922;-6.168;106.796;2023-01-06T05:30:45;100960.06;;;33.44;49.28
74474;BME280;62922;-6.168;106.796;2023-01-06T05:33:12;100840.69;;;32.77;49.37
74474;BME280;62922;-6.168;106.796;2023-01-06T05:35:38;100963.31;;;33.55;48.58
74474;BME280;62922;-6.168;106.796;2023-01-06T05:38:05;100966.75;;;33.60;47.82
74474;BME280;62922;-6.168;106.796;2023-01-06T05:40:33;100868.00;;;33.14;47.82
74474;BME280;62922;-6.168;106.796;2023-01-06T05:43:00;100925.09;;;33.48;46.98
74474;BME280;62922;-6.168;106.796;2023-01-06T05:45:27;100951.72;;;33.80;46.84
74474;BME280;62922;-6.168;106.796;2023-01-06T05:47:53;100945.59;;;33.90;45.97
74474;BME280;62922;-6.168;106.796;2023-01-06T05:50:19;100937.59;;;33.92;45.70
74474;BME280;62922;-6.168;106.796;2023-01-06T05:52:46;100846.13;;;33.35;46.68
74474;BME280;62922;-6.168;106.796;2023-01-06T05:55:12;100920.88;;;33.99;45.84
74474;BME280;62922;-6.168;106.796;2023-01-06T05:57:38;100886.50;;;33.77;46.53
74474;BME280;62922;-6.168;106.796;2023-01-06T06:00:05;100909.75;;;33.94;47.04
74474;BME280;62922;-6.168;106.796;2023-01-06T06:02:33;100918.53;;;34.01;48.18
74474;BME280;62922;-6.168;106.796;2023-01-06T06:04:59;100907.66;;;34.03;47.88
74474;BME280;62922;-6.168;106.796;2023-01-06T06:07:25;100881.06;;;33.84;48.58
74474;BME280;62922;-6.168;106.796;2023-01-06T06:09:52;100876.56;;;33.83;48.59
74474;BME280;62922;-6.168;106.796;2023-01-06T06:12:18;100858.63;;;33.67;48.00
74474;BME280;62922;-6.168;106.796;2023-01-06T06:14:44;100857.00;;;33.66;48.84
74474;BME280;62922;-6.168;106.796;2023-01-06T06:17:10;100865.97;;;33.68;47.23
74474;BME280;62922;-6.168;106.796;2023-01-06T06:19:37;100878.97;;;33.81;46.09
74474;BME280;62922;-6.168;106.796;2023-01-06T06:22:03;100773.41;;;33.35;45.55
74474;BME280;62922;-6.168;106.796;2023-01-06T06:24:31;100870.72;;;34.00;45.78
74474;BME280;62922;-6.168;106.796;2023-01-06T06:26:58;100857.66;;;33.95;45.93
74474;BME280;62922;-6.168;106.796;2023-01-06T06:29:24;100857.66;;;34.07;46.08
74474;BME280;62922;-6.168;106.796;2023-01-06T06:31:50;100859.28;;;34.08;46.09
74474;BME280;62922;-6.168;106.796;2023-01-06T06:34:17;100830.47;;;33.94;46.56
74474;BME280;62922;-6.168;106.796;2023-01-06T06:36:43;100810.66;;;33.82;46.27
74474;BME280;62922;-6.168;106.796;2023-01-06T06:39:09;100794.84;;;33.81;46.54
74474;BME280;62922;-6.168;106.796;2023-01-06T06:41:36;100803.13;;;33.98;47.03
74474;BME280;62922;-6.168;106.796;2023-01-06T06:44:02;100838.63;;;34.20;46.85
74474;BME280;62922;-6.168;106.796;2023-01-06T06:46:32;100805.34;;;34.05;46.40
74474;BME280;62922;-6.168;106.796;2023-01-06T06:48:58;100808.81;;;33.98;46.49
74474;BME280;62922;-6.168;106.796;2023-01-06T06:51:24;100787.31;;;33.97;46.40
74474;BME280;62922;-6.168;106.796;2023-01-06T06:53:54;100774.78;;;33.86;46.09
74474;BME280;62922;-6.168;106.796;2023-01-06T06:56:22;100817.03;;;34.03;46.47
74474;BME280;62922;-6.168;106.796;2023-01-06T06:58:49;100753.69;;;33.84;46.26
74474;BME280;62922;-6.168;106.796;2023-01-06T07:01:21;100788.13;;;34.22;45.86
74474;BME280;62922;-6.168;106.796;2023-01-06T07:03:48;100745.53;;;33.94;46.01
74474;BME280;62922;-6.168;106.796;2023-01-06T07:06:19;100780.34;;;34.19;46.29
74474;BME280;62922;-6.168;106.796;2023-01-06T07:08:47;100673.13;;;33.57;46.51
74474;BME280;62922;-6.168;106.796;2023-01-06T07:11:13;100770.50;;;34.28;46.35
74474;BME280;62922;-6.168;106.796;2023-01-06T07:13:40;100711.22;;;34.08;46.40
74474;BME280;62922;-6.168;106.796;2023-01-06T07:16:06;100676.16;;;33.88;45.83
74474;BME280;62922;-6.168;106.796;2023-01-06T07:18:32;100779.25;;;34.35;46.21
74474;BME280;62922;-6.168;106.796;2023-01-06T07:20:59;100728.53;;;34.18;45.58
74474;BME280;62922;-6.168;106.796;2023-01-06T07:23:25;100762.25;;;34.47;45.21
74474;BME280;62922;-6.168;106.796;2023-01-06T07:25:53;100659.53;;;33.87;45.71
74474;BME280;62922;-6.168;106.796;2023-01-06T07:28:19;100769.31;;;34.54;45.75
74474;BME280;62922;-6.168;106.796;2023-01-06T07:30:45;100758.19;;;34.61;46.05
74474;BME280;62922;-6.168;106.796;2023-01-06T07:33:12;100735.91;;;34.47;45.44
74474;BME280;62922;-6.168;106.796;2023-01-06T07:35:38;100754.88;;;34.59;45.64
74474;BME280;62922;-6.168;106.796;2023-01-06T07:38:06;100752.88;;;34.59;44.89
74474;BME280;62922;-6.168;106.796;2023-01-06T07:40:33;100718.66;;;34.52;44.50
74474;BME280;62922;-6.168;106.796;2023-01-06T07:43:04;100732.22;;;34.59;44.17
74474;BME280;62922;-6.168;106.796;2023-01-06T07:45:31;100746.53;;;34.50;44.80
74474;BME280;62922;-6.168;106.796;2023-01-06T07:47:58;100687.44;;;34.24;44.85
74474;BME280;62922;-6.168;106.796;2023-01-06T07:50:24;100692.03;;;34.29;44.94
74474;BME280;62922;-6.168;106.796;2023-01-06T07:52:51;100694.72;;;34.37;44.57
74474;BME280;62922;-6.168;106.796;2023-01-06T07:55:17;100663.84;;;34.20;44.54
74474;BME280;62922;-6.168;106.796;2023-01-06T07:57:46;100703.47;;;34.44;45.04
74474;BME280;62922;-6.168;106.796;2023-01-06T08:00:13;100694.84;;;34.41;45.17
74474;BME280;62922;-6.168;106.796;2023-01-06T08:02:40;100669.06;;;34.18;45.21
74474;BME280;62922;-6.168;106.796;2023-01-06T08:05:06;100647.13;;;34.15;45.22
74474;BME280;62922;-6.168;106.796;2023-01-06T08:07:32;100645.56;;;34.18;44.85
74474;BME280;62922;-6.168;106.796;2023-01-06T08:10:01;100634.50;;;34.13;45.88
74474;BME280;62922;-6.168;106.796;2023-01-06T08:12:27;100644.97;;;34.24;45.36
74474;BME280;62922;-6.168;106.796;2023-01-06T08:14:53;100602.66;;;34.04;45.63
74474;BME280;62922;-6.168;106.796;2023-01-06T08:17:20;100654.25;;;34.25;45.08
74474;BME280;62922;-6.168;106.796;2023-01-06T08:19:46;100681.81;;;34.52;45.33
74474;BME280;62922;-6.168;106.796;2023-01-06T08:22:15;100681.47;;;34.54;44.31
74474;BME280;62922;-6.168;106.796;2023-01-06T08:24:41;100688.41;;;34.56;44.56
74474;BME280;62922;-6.168;106.796;2023-01-06T08:27:10;100641.41;;;34.27;44.60
74474;BME280;62922;-6.168;106.796;2023-01-06T08:29:36;100672.13;;;34.53;44.89
74474;BME280;62922;-6.168;106.796;2023-01-06T08:32:02;100631.69;;;34.28;44.88
74474;BME280;62922;-6.168;106.796;2023-01-06T08:34:29;100617.09;;;34.26;44.89
74474;BME280;62922;-6.168;106.796;2023-01-06T08:36:55;100640.31;;;34.32;44.96
74474;BME280;62922;-6.168;106.796;2023-01-06T08:39:21;100653.34;;;34.48;44.98
74474;BME280;62922;-6.168;106.796;2023-01-06T08:41:48;100637.78;;;34.42;45.09
74474;BME280;62922;-6.168;106.796;2023-01-06T08:44:17;100666.00;;;34.51;44.82
74474;BME280;62922;-6.168;106.796;2023-01-06T08:46:43;100690.25;;;34.64;44.83
74474;BME280;62922;-6.168;106.796;2023-01-06T08:49:10;100641.69;;;34.38;45.18
74474;BME280;62922;-6.168;106.796;2023-01-06T08:51:36;100626.25;;;34.35;45.16
74474;BME280;62922;-6.168;106.796;2023-01-06T08:54:02;100674.19;;;34.68;45.13
74474;BME280;62922;-6.168;106.796;2023-01-06T08:56:30;100681.22;;;34.74;45.05
74474;BME280;62922;-6.168;106.796;2023-01-06T08:58:58;100608.91;;;34.37;44.77
74474;BME280;62922;-6.168;106.796;2023-01-06T09:01:32;100631.41;;;34.45;44.91
74474;BME280;62922;-6.168;106.796;2023-01-06T09:04:02;100690.47;;;34.71;44.33
74474;BME280;62922;-6.168;106.796;2023-01-06T09:06:29;100600.88;;;34.11;44.17
74474;BME280;62922;-6.168;106.796;2023-01-06T09:08:56;100582.69;;;34.12;44.17
74474;BME280;62922;-6.168;106.796;2023-01-06T09:11:23;100685.25;;;34.73;44.20
74474;BME280;62922;-6.168;106.796;2023-01-06T09:13:50;100630.47;;;34.41;44.72
74474;BME280;62922;-6.168;106.796;2023-01-06T09:16:18;100674.75;;;34.74;44.75
74474;BME280;62922;-6.168;106.796;2023-01-06T09:18:45;100677.13;;;34.72;44.62
74474;BME280;62922;-6.168;106.796;2023-01-06T09:21:17;100675.81;;;34.69;44.79
74474;BME280;62922;-6.168;106.796;2023-01-06T09:23:44;100642.84;;;34.49;45.07
74474;BME280;62922;-6.168;106.796;2023-01-06T09:26:11;100662.00;;;34.52;44.88
74474;BME280;62922;-6.168;106.796;2023-01-06T09:28:38;100643.69;;;34.50;45.37
74474;BME280;62922;-6.168;106.796;2023-01-06T09:31:06;100690.25;;;34.64;45.11
74474;BME280;62922;-6.168;106.796;2023-01-06T09:33:33;100700.16;;;34.70;45.40
74474;BME280;62922;-6.168;106.796;2023-01-06T09:35:59;100700.16;;;34.70;45.22
74474;BME280;62922;-6.168;106.796;2023-01-06T09:38:25;100668.00;;;34.51;46.10
74474;BME280;62922;-6.168;106.796;2023-01-06T09:46:04;100706.72;;;34.74;45.35
74474;BME280;62922;-6.168;106.796;2023-01-06T09:48:45;100663.56;;;34.37;45.62
74474;BME280;62922;-6.168;106.796;2023-01-06T09:51:20;100707.16;;;34.61;44.63
74474;BME280;62922;-6.168;106.796;2023-01-06T09:54:01;100652.94;;;34.34;44.36
74474;BME280;62922;-6.168;106.796;2023-01-06T09:56:30;100706.81;;;34.62;43.90
74474;BME280;62922;-6.168;106.796;2023-01-06T09:59:11;100699.97;;;34.63;44.58
74474;BME280;62922;-6.168;106.796;2023-01-06T10:01:47;100720.13;;;34.62;44.78
74474;BME280;62922;-6.168;106.796;2023-01-06T10:04:19;100624.97;;;34.05;44.64
74474;BME280;62922;-6.168;106.796;2023-01-06T10:14:22;100718.91;;;34.47;45.27
74474;BME280;62922;-6.168;106.796;2023-01-06T10:22:21;100723.41;;;34.48;44.75
74474;BME280;62922;-6.168;106.796;2023-01-06T10:25:32;100734.13;;;34.42;44.63
74474;BME280;62922;-6.168;106.796;2023-01-06T10:28:00;100679.53;;;34.18;45.46
74474;BME280;62922;-6.168;106.796;2023-01-06T10:30:32;100728.09;;;34.44;45.21
74474;BME280;62922;-6.168;106.796;2023-01-06T10:33:05;100726.59;;;34.34;45.27
74474;BME280;62922;-6.168;106.796;2023-01-06T10:35:32;100728.94;;;34.32;45.32
74474;BME280;62922;-6.168;106.796;2023-01-06T10:38:02;100739.94;;;34.34;45.82
74474;BME280;62922;-6.168;106.796;2023-01-06T10:40:31;100713.22;;;34.07;45.67
74474;BME280;62922;-6.168;106.796;2023-01-06T10:47:57;100765.56;;;34.25;45.23
74474;BME280;62922;-6.168;106.796;2023-01-06T10:50:24;100755.19;;;34.17;45.59
74474;BME280;62922;-6.168;106.796;2023-01-06T10:52:50;100754.03;;;34.18;45.53
74474;BME280;62922;-6.168;106.796;2023-01-06T10:57:48;100774.09;;;34.13;45.89
74474;BME280;62922;-6.168;106.796;2023-01-06T11:00:19;100721.00;;;33.86;44.96
74474;BME280;62922;-6.168;106.796;2023-01-06T11:02:52;100720.66;;;33.88;45.51
74474;BME280;62922;-6.168;106.796;2023-01-06T11:05:26;100751.09;;;34.03;45.16
74474;BME280;62922;-6.168;106.796;2023-01-06T11:12:58;100781.53;;;34.06;45.40
74474;BME280;62922;-6.168;106.796;2023-01-06T11:15:39;100794.50;;;34.07;45.62
74474;BME280;62922;-6.168;106.796;2023-01-06T11:18:27;100782.09;;;33.87;45.27
74474;BME280;62922;-6.168;106.796;2023-01-06T11:23:30;100810.16;;;33.92;45.97
74474;BME280;62922;-6.168;106.796;2023-01-06T11:26:02;100733.94;;;33.39;45.97
74474;BME280;62922;-6.168;106.796;2023-01-06T11:28:29;100821.50;;;33.92;46.05
74474;BME280;62922;-6.168;106.796;2023-01-06T11:31:04;100737.34;;;33.32;46.59
74474;BME280;62922;-6.168;106.796;2023-01-06T11:33:34;100842.41;;;33.88;46.49
74474;BME280;62922;-6.168;106.796;2023-01-06T11:36:12;100841.44;;;33.84;46.62
74474;BME280;62922;-6.168;106.796;2023-01-06T11:38:44;100831.28;;;33.71;46.25
74474;BME280;62922;-6.168;106.796;2023-01-06T11:41:24;100831.75;;;33.73;47.05
74474;BME280;62922;-6.168;106.796;2023-01-06T11:43:55;100826.28;;;33.56;47.31
74474;BME280;62922;-6.168;106.796;2023-01-06T11:46:23;100776.72;;;33.25;46.89
74474;BME280;62922;-6.168;106.796;2023-01-06T11:49:03;100862.28;;;33.67;47.54
74474;BME280;62922;-6.168;106.796;2023-01-06T12:02:28;100799.75;;;33.15;48.09
74474;BME280;62922;-6.168;106.796;2023-01-06T12:04:56;100899.63;;;33.61;48.47
74474;BME280;62922;-6.168;106.796;2023-01-06T12:07:46;100857.59;;;33.38;47.99
74474;BME280;62922;-6.168;106.796;2023-01-06T12:10:21;100896.69;;;33.57;48.36
74474;BME280;62922;-6.168;106.796;2023-01-06T12:12:49;100858.38;;;33.27;48.29
74474;BME280;62922;-6.168;106.796;2023-01-06T12:15:16;100877.72;;;33.37;48.94
74474;BME280;62922;-6.168;106.796;2023-01-06T12:17:54;100933.28;;;33.62;49.06
74474;BME280;62922;-6.168;106.796;2023-01-06T12:22:56;100891.25;;;33.31;48.61
74474;BME280;62922;-6.168;106.796;2023-01-06T12:25:28;100902.44;;;33.28;49.12
74474;BME280;62922;-6.168;106.796;2023-01-06T12:28:18;100948.34;;;33.54;49.63
74474;BME280;62922;-6.168;106.796;2023-01-06T12:30:51;100966.00;;;33.51;49.63
74474;BME280;62922;-6.168;106.796;2023-01-06T12:33:31;100921.63;;;33.22;49.11
74474;BME280;62922;-6.168;106.796;2023-01-06T12:36:03;100980.66;;;33.53;49.50
74474;BME280;62922;-6.168;106.796;2023-01-06T12:38:55;100973.19;;;33.48;49.86
74474;BME280;62922;-6.168;106.796;2023-01-06T12:41:46;100975.53;;;33.46;50.85
74474;BME280;62922;-6.168;106.796;2023-01-06T12:46:50;100986.56;;;33.39;50.38
74474;BME280;62922;-6.168;106.796;2023-01-06T12:51:55;100995.75;;;33.36;50.88
74474;BME280;62922;-6.168;106.796;2023-01-06T12:54:32;100961.53;;;33.09;50.02
74474;BME280;62922;-6.168;106.796;2023-01-06T13:07:49;101022.78;;;33.25;51.13
74474;BME280;62922;-6.168;106.796;2023-01-06T13:10:35;101019.19;;;33.16;50.64
74474;BME280;62922;-6.168;106.796;2023-01-06T13:16:04;101037.28;;;33.24;50.87
74474;BME280;62922;-6.168;106.796;2023-01-06T13:18:39;100995.03;;;32.98;51.03
74474;BME280;62922;-6.168;106.796;2023-01-06T13:21:11;100953.44;;;32.70;50.77
74474;BME280;62922;-6.168;106.796;2023-01-06T13:35:05;101054.16;;;33.12;51.68
74474;BME280;62922;-6.168;106.796;2023-01-06T13:40:23;101065.16;;;33.05;50.82
74474;BME280;62922;-6.168;106.796;2023-01-06T13:42:59;100974.50;;;32.51;50.34
74474;BME280;62922;-6.168;106.796;2023-01-06T13:45:33;101020.59;;;32.73;49.92
74474;BME280;62922;-6.168;106.796;2023-01-06T13:48:02;100989.13;;;32.53;50.71
74474;BME280;62922;-6.168;106.796;2023-01-06T13:50:38;101049.31;;;32.75;51.14
74474;BME280;62922;-6.168;106.796;2023-01-06T13:53:15;101064.56;;;32.91;50.82
74474;BME280;62922;-6.168;106.796;2023-01-06T13:55:42;100902.13;;;31.84;51.84
74474;BME280;62922;-6.168;106.796;2023-01-06T14:03:44;101066.25;;;32.83;51.08
74474;BME280;62922;-6.168;106.796;2023-01-06T14:08:59;101080.53;;;32.87;51.47
74474;BME280;62922;-6.168;106.796;2023-01-06T14:11:37;101077.88;;;32.90;50.84
74474;BME280;62922;-6.168;106.796;2023-01-06T14:14:15;101077.22;;;32.85;52.11
74474;BME280;62922;-6.168;106.796;2023-01-06T14:16:50;101083.38;;;32.87;52.72
74474;BME280;62922;-6.168;106.796;2023-01-06T14:19:37;101073.34;;;32.89;52.79
74474;BME280;62922;-6.168;106.796;2023-01-06T14:22:18;101078.69;;;32.91;52.48
74474;BME280;62922;-6.168;106.796;2023-01-06T14:24:49;101075.38;;;32.89;51.91
74474;BME280;62922;-6.168;106.796;2023-01-06T14:30:25;101068.44;;;32.78;53.44
74474;BME280;62922;-6.168;106.796;2023-01-06T14:35:29;101092.50;;;32.84;52.85
74474;BME280;62922;-6.168;106.796;2023-01-06T14:38:11;101088.03;;;32.83;53.68
74474;BME280;62922;-6.168;106.796;2023-01-06T14:40:49;101073.97;;;32.74;52.37
74474;BME280;62922;-6.168;106.796;2023-01-06T14:43:39;101061.31;;;32.72;52.21
74474;BME280;62922;-6.168;106.796;2023-01-06T14:46:16;101072.94;;;32.79;52.41
74474;BME280;62922;-6.168;106.796;2023-01-06T14:48:48;100980.09;;;32.22;53.38
74474;BME280;62922;-6.168;106.796;2023-01-06T14:51:19;101063.94;;;32.77;53.61
74474;BME280;62922;-6.168;106.796;2023-01-06T14:53:54;101017.06;;;32.46;53.26
74474;BME280;62922;-6.168;106.796;2023-01-06T14:56:23;101008.56;;;32.38;53.12